Time;durP1;ratioP1;P1;durP2;ratioP2;P2;SDS_P1;SDS_P2;PMS_P1;PMS_P2;Temp;Humidity;BMP_temperature;BMP_pressure;BME280_temperature;BME280_humidity;BME280_pressure;Samples;Min_cycle;Max_cycle;Signal;HPM_P1;HPM_P2
2023/10/09 00:02:58;;;;;;;6.80;5.25;;;;;;;;;;5114520;28;20481;-88
2023/10/09 00:05:37;;;;;;;11.45;4.88;;;;;;;;;;5098027;28;20062;-87
2023/10/09 00:08:04;;;;;;;10.43;4.80;;;;;;;;;;5097402;28;20047;-87
2023/10/09 00:10:44;;;;;;;10.75;5.00;;;;;;;;;;5097574;28;20079;-86
2023/10/09 00:13:10;;;;;;;11.75;4.88;;;;;;;;;;5115852;27;20408;-87
2023/10/09 00:15:36;;;;;;;12.90;5.40;;;;;;;;;;5097520;28;20071;-87
2023/10/09 00:18:12;;;;;;;13.57;5.28;;;;;;;;;;5108703;27;20492;-85
2023/10/09 00:20:42;;;;;;;13.05;5.22;;;;;;;;;;5134885;27;20035;-86
2023/10/09 00:23:12;;;;;;;9.85;4.80;;;;;;;;;;5134471;27;20055;-84
2023/10/09 00:25:45;;;;;;;13.38;5.32;;;;;;;;;;5117490;27;20487;-86
2023/10/09 00:28:12;;;;;;;12.33;5.43;;;;;;;;;;5118543;27;20047;-84
2023/10/09 00:30:41;;;;;;;13.32;5.78;;;;;;;;;;5113776;28;20546;-86
2023/10/09 00:33:09;;;;;;;13.57;5.60;;;;;;;;;;5113826;28;20549;-87
2023/10/09 00:35:54;;;;;;;16.45;6.68;;;;;;;;;;5113968;27;20059;-88
2023/10/09 00:40:47;;;;;;;13.40;6.53;;;;;;;;;;5116102;27;20418;-87
2023/10/09 00:43:14;;;;;;;11.75;6.07;;;;;;;;;;5103714;28;20048;-85
2023/10/09 00:45:43;;;;;;;9.82;6.20;;;;;;;;;;5096831;28;20046;-84
2023/10/09 00:48:09;;;;;;;14.55;6.95;;;;;;;;;;5098384;28;20079;-87
2023/10/09 00:50:38;;;;;;;10.02;6.47;;;;;;;;;;5084675;27;20403;-87
2023/10/09 00:53:12;;;;;;;13.57;7.50;;;;;;;;;;5119054;27;20050;-87
2023/10/09 00:58:15;;;;;;;14.05;6.85;;;;;;;;;;5115079;27;20093;-88
2023/10/09 01:06:33;;;;;;;19.73;7.80;;;;;;;;;;5118077;27;20078;-88
2023/10/09 01:11:18;;;;;;;18.75;9.20;;;14.50;1.00;;;;;;5097500;28;20047;-87
2023/10/09 01:16:17;;;;;;;22.35;9.75;;;;;;;;;;5113506;28;20462;-85
2023/10/09 01:18:49;;;;;;;17.02;8.70;;;;;;;;;;5096558;28;20081;-86
2023/10/09 01:21:24;;;;;;;16.52;9.05;;;;;;;;;;5123752;27;20039;-84
2023/10/09 01:24:04;;;;;;;16.48;9.02;;;;;;;;;;5133701;27;20040;-83
2023/10/09 01:26:39;;;;;;;23.10;10.52;;;;;;;;;;5135154;27;20035;-84
2023/10/09 01:29:10;;;;;;;21.23;10.35;;;;;;;;;;5116886;27;20043;-86
2023/10/09 01:31:44;;;;;;;25.88;11.52;;;;;;;;;;5133032;27;20506;-85
2023/10/09 01:34:12;;;;;;;28.88;11.82;;;;;;;;;;5116652;27;20047;-89
2023/10/09 01:36:39;;;;;;;23.08;10.50;;;;;;;;;;5134325;27;20539;-86
2023/10/09 01:39:21;;;;;;;22.05;11.25;;;;;;;;;;5116396;27;20047;-86
2023/10/09 01:41:49;;;;;;;22.92;11.68;;;;;;;;;;5129386;27;20031;-85
2023/10/09 01:44:16;;;;;;;21.55;11.55;;;;;;;;;;5096012;28;20460;-87
2023/10/09 01:46:45;;;;;;;23.20;12.45;;;;;;;;;;5096150;28;20039;-85
2023/10/09 01:49:17;;;;;;;18.85;11.13;;;;;;;;;;5113713;28;20526;-84
2023/10/09 01:51:44;;;;;;;27.58;12.68;;;;;;;;;;5098222;27;20404;-87
2023/10/09 01:54:16;;;;;;;28.25;13.07;;;;;;;;;;5133655;27;20043;-87
2023/10/09 01:56:46;;;;;;;28.35;13.60;;;;;;;;;;5115836;27;20050;-87
2023/10/09 01:59:12;;;;;;;28.02;13.68;;;;;;;;;;5132635;27;20088;-86
2023/10/09 02:01:42;;;;;;;27.27;14.63;;;;;;;;;;5115981;27;20035;-84
2023/10/09 02:04:13;;;;;;;26.48;13.10;;;;;;;;;;5132556;27;20122;-87
2023/10/09 02:06:40;;;;;;;29.52;15.98;;;;;;;;;;5115834;27;20046;-88
2023/10/09 02:09:06;;;;;;;33.95;15.95;;;;;;;;;;5115630;27;20587;-88
2023/10/09 02:11:36;;;;;;;36.60;16.20;;;;;;;;;;5134249;27;20050;-88
2023/10/09 02:14:18;;;;;;;33.30;15.60;;;;;;;;;;5130801;27;20105;-86
2023/10/09 02:17:01;;;;;;;29.27;15.30;;;;;;;;;;5115954;27;20042;-88
2023/10/09 02:19:34;;;;;;;28.40;15.30;;;;;;;;;;5115377;27;20484;-90
2023/10/09 02:22:03;;;;;;;26.98;15.45;;;;;;;;;;5111101;28;20496;-86
2023/10/09 02:27:19;;;;;;;46.05;18.33;;;;;;;;;;5097807;28;20454;-88
2023/10/09 02:29:47;;;;;;;35.83;18.23;;;;;;;;;;5094896;28;20051;-88
2023/10/09 02:32:26;;;;;;;41.17;19.13;;;;;;;;;;5100670;27;20425;-87
2023/10/09 02:34:53;;;;;;;37.55;17.55;;;;;;;;;;5115511;27;20134;-86
2023/10/09 02:37:25;;;;;;;42.35;19.63;;;;;;;;;;5115291;27;20047;-89
2023/10/09 02:39:52;;;;;;;45.03;20.08;;;;;;;;;;5115427;27;20202;-89
2023/10/09 02:42:28;;;;;;;37.92;19.90;;;;;;;;;;5115749;27;20130;-89
2023/10/09 02:44:55;;;;;;;38.17;20.60;;;;;;;;;;5121422;27;20071;-86
2023/10/09 02:47:25;;;;;;;37.60;18.85;;;;;;;;;;5095015;28;20039;-90
2023/10/09 02:49:51;;;;;;;40.03;22.08;;;;;;;;;;5086863;27;20043;-89
2023/10/09 02:52:19;;;;;;;37.13;19.92;;;;;;;;;;5115663;27;20093;-88
2023/10/09 02:54:48;;;;;;;38.75;20.77;;;;;;;;;;5115550;27;20047;-89
2023/10/09 02:57:23;;;;;;;39.50;21.05;;;;;;;;;;5115482;28;20051;-88
2023/10/09 02:59:51;;;;;;;42.20;21.48;;;;;;;;;;5102969;28;20043;-90
2023/10/09 03:02:19;;;;;;;38.97;19.45;;;;;;;;;;5111652;28;20169;-91
2023/10/09 03:04:46;;;;;;;43.97;21.50;;;;;;;;;;5111996;28;20063;-89
2023/10/09 03:07:15;;;;;;;41.65;22.33;;;;;;;;;;5112940;28;20040;-89
2023/10/09 03:09:41;;;;;;;34.30;20.70;;;;;;;;;;5097182;28;20131;-90
2023/10/09 03:12:12;;;;;;;37.17;20.52;;;;;;;;;;5133060;27;20039;-88
2023/10/09 03:14:39;;;;;;;42.63;22.10;;;;;;;;;;5137812;27;20043;-90
2023/10/09 03:17:11;;;;;;;41.53;21.52;;;;;;;;;;5119327;27;20047;-89
2023/10/09 03:19:37;;;;;;;41.95;21.40;;;;;;;;;;5129435;27;20079;-89
2023/10/09 03:22:04;;;;;;;42.25;20.00;;;;;;;;;;5126784;27;20507;-87
2023/10/09 03:24:33;;;;;;;38.65;20.63;;;;;;;;;;5136431;27;20490;-88
2023/10/09 03:27:00;;;;;;;43.15;20.38;;;;;;;;;;5100686;27;20047;-88
2023/10/09 03:29:27;;;;;;;40.38;20.92;;;;;;;;;;5101562;27;20039;-87
2023/10/09 03:31:55;;;;;;;37.03;18.67;;;;;;;;;;5116165;27;20507;-89
2023/10/09 03:34:21;;;;;;;40.05;20.40;;;;;;;;;;5122235;27;20038;-88
2023/10/09 03:36:51;;;;;;;34.67;19.42;;;;;;;;;;5139055;27;20046;-88
2023/10/09 03:42:05;;;;;;;31.75;18.17;;;;;;;;;;5123117;27;20103;-88
2023/10/09 03:44:34;;;;;;;32.42;18.08;;;;;;;;;;5136973;27;20051;-88
2023/10/09 03:47:01;;;;;;;34.47;17.50;;;;;;;;;;5101589;27;20050;-89
2023/10/09 03:49:29;;;;;;;33.70;18.15;;;;;;;;;;5101641;27;20380;-89
2023/10/09 03:51:55;;;;;;;30.70;17.27;;;;;;;;;;5136837;27;20426;-88
2023/10/09 03:54:22;;;;;;;31.13;17.00;;;;;;;;;;5137454;27;20127;-88
2023/10/09 03:56:54;;;;;;;28.42;17.15;;;;;;;;;;5138500;27;20042;-88
2023/10/09 03:59:21;;;;;;;30.95;17.63;;;;;;;;;;5157061;27;20452;-89
2023/10/09 04:01:50;;;;;;;30.05;17.83;;;;;;;;;;5156929;27;20050;-89
2023/10/09 04:04:16;;;;;;;36.67;18.35;;;;;;;;;;5136329;27;20060;-88
2023/10/09 04:06:43;;;;;;;27.17;16.67;;;;;;;;;;5101144;27;20070;-88
2023/10/09 04:11:56;;;;;;;27.20;15.05;;;;;;;;;;5118981;27;20499;-85
2023/10/09 04:14:33;;;;;;;23.13;14.32;;;;;;;;;;5101542;27;20043;-87
2023/10/09 04:22:39;;;;;;;25.98;14.88;;;;;;;;;;5097984;28;20054;-88
2023/10/09 04:25:25;;;;;;;22.85;14.02;;;;;;;;;;5098203;28;20062;-89
2023/10/09 04:27:53;;;;;;;25.63;14.13;;;;;;;;;;5116061;28;20054;-88
2023/10/09 04:30:19;;;;;;;25.23;14.35;;;;;;;;;;5081545;28;20047;-91
2023/10/09 04:32:46;;;;;;;25.85;13.73;;;;;;;;;;5095089;27;20035;-87
2023/10/09 04:35:26;;;;;;;21.80;13.10;;;;;;;;;;5122212;27;20129;-91
2023/10/09 04:38:00;;;;;;;21.13;13.05;;;;;;;;;;5157323;27;20057;-91
2023/10/09 04:40:49;;;;;;;21.75;12.77;;;;;;;;;;5156532;27;20049;-88
2023/10/09 04:43:21;;;;;;;21.15;12.13;;;;;;;;;;5156761;27;20053;-91
2023/10/09 04:48:38;;;;;;;26.00;11.20;;;;;;;;;;5138553;27;20051;-86
2023/10/09 04:54:12;;;;;;;22.63;11.57;;;;;;;;;;5156244;27;20146;-85
2023/10/09 04:56:51;;;;;;;17.80;12.38;;;;;;;;;;5120891;27;20039;-87
2023/10/09 04:59:18;;;;;;;18.85;11.43;;;;;;;;;;5156794;27;20050;-85
2023/10/09 05:01:57;;;;;;;21.08;9.80;;;;;;;;;;5104394;27;20074;-85
2023/10/09 05:04:39;;;;;;;17.45;10.13;;;;;;;;;;5121283;27;20505;-86
2023/10/09 05:07:24;;;;;;;25.60;11.38;;;;;;;;;;5146333;27;20047;-89
2023/10/09 05:10:07;;;;;;;21.63;10.40;;;;;;;;;;5105863;27;20507;-85
2023/10/09 05:12:33;;;;;;;20.30;10.75;;;;;;;;;;5120120;27;20073;-88
2023/10/09 05:15:13;;;;;;;16.05;10.38;;;;;;;;;;5103462;27;20039;-87
2023/10/09 05:17:39;;;;;;;18.48;10.40;;;;;;;;;;5106329;27;20054;-85
2023/10/09 05:22:58;;;;;;;15.20;9.30;;;;;;;;;;5108707;27;20415;-86
2023/10/09 05:31:45;;;;;;;16.88;8.43;;;;;;;;;;5159797;27;20429;-86
2023/10/09 05:33:45;;;;;;;22.98;9.68;;;;;;;;;;5158406;27;20046;-89
2023/10/09 05:36:31;;;;;;;20.77;9.45;;;;;;;;;;5149317;27;20495;-87
2023/10/09 05:42:07;;;;;;;20.85;9.73;;;;;;;;;;5103279;27;20051;-90
2023/10/09 06:08:38;;;;;;;17.50;7.40;;;;;;;;;;5119121;27;20072;-88
2023/10/09 06:14:02;;;;;;;14.65;7.40;;;;;;;;;;5118715;27;20043;-88
2023/10/09 06:16:59;;;;;;;17.00;7.30;;;;;;;;;;5129643;27;20126;-86
2023/10/09 06:19:26;;;;;;;16.60;8.35;;;;;;;;;;5120381;27;20125;-86
2023/10/09 06:30:24;;;;;;;21.33;8.52;;;;;;;;;;5156517;27;20043;-86
2023/10/09 06:35:53;;;;;;;15.35;7.55;;;16.30;31.90;;;;;;5123445;27;19926;-86
2023/10/09 06:38:23;;;;;;;;;;;;;;;;;;5110575;27;20043;-84
2023/10/09 06:43:36;;;;;;;18.13;7.10;;;;;;;;;;5105929;27;20051;-86
2023/10/09 06:48:57;;;;;;;18.65;7.70;;;;;;;;;;5116354;28;20415;-86
2023/10/09 07:01:49;;;;;;;16.80;7.47;;;;;;;;;;5122083;27;20098;-86
2023/10/09 07:04:18;;;;;;;;;;;16.30;37.10;;;;;;5120841;27;20072;-86
2023/10/09 07:06:48;;;;;;;13.70;6.95;;;;;;;;;;5101521;28;19958;-87
2023/10/09 07:09:15;;;;;;;14.73;6.78;;;;;;;;;;5099477;28;20069;-86
2023/10/09 07:16:58;;;;;;;16.92;6.97;;;;;;;;;;5116660;27;20047;-86
2023/10/09 07:19:35;;;;;;;13.40;7.22;;;;;;;;;;5116231;28;20169;-86
2023/10/09 07:22:04;;;;;;;15.55;7.70;;;16.10;31.00;;;;;;5115356;28;20062;-86
2023/10/09 07:24:49;;;;;;;13.60;7.63;;;;;;;;;;5099681;28;20108;-86
2023/10/09 07:30:35;;;;;;;17.05;7.15;;;;;;;;;;5116875;28;20039;-86
2023/10/09 07:32:54;;;;;;;14.02;7.32;;;;;;;;;;5115747;28;20121;-86
2023/10/09 07:38:08;;;;;;;18.85;7.00;;;;;;;;;;5115622;28;20035;-86
2023/10/09 07:40:51;;;;;;;15.95;7.70;;;;;;;;;;5133405;28;20054;-87
2023/10/09 07:43:18;;;;;;;16.65;7.00;;;;;;;;;;5110771;27;20482;-86
2023/10/09 07:48:16;;;;;;;16.45;8.07;;;;;;;;;;5136098;27;20376;-86
2023/10/09 07:50:57;;;;;;;17.92;7.38;;;;;;;;;;5118494;27;20049;-86
2023/10/09 07:53:26;;;;;;;14.80;7.70;;;;;;;;;;5134991;27;20046;-87
2023/10/09 07:56:06;;;;;;;20.05;7.38;;;;;;;;;;5139441;27;20380;-86
2023/10/09 07:58:45;;;;;;;17.20;7.40;;;;;;;;;;5136833;27;20043;-87
2023/10/09 08:03:57;;;;;;;13.25;7.63;;;;;;;;;;5118687;27;20096;-86
2023/10/09 08:06:39;;;;;;;21.27;7.72;;;16.00;41.40;;;;;;5118549;27;20121;-87
2023/10/09 08:19:54;;;;;;;19.77;8.50;;;;;;;;;;5107933;27;20129;-87
2023/10/09 08:24:57;;;;;;;17.27;7.75;;;;;;;;;;5106019;27;20130;-88
2023/10/09 08:32:42;;;;;;;21.98;7.18;;;;;;;;;;5103569;27;20142;-85
2023/10/09 08:35:30;;;;;;;17.88;7.35;;;;;;;;;;5069800;27;20057;-86
2023/10/09 08:38:07;;;;;;;20.27;7.13;;;;;;;;;;5105589;27;20051;-85
2023/10/09 08:40:42;;;;;;;21.98;6.80;;;;;;;;;;5123446;27;20499;-89
2023/10/09 08:43:17;;;;;;;19.98;7.40;;;;;;;;;;5086899;28;20547;-88
2023/10/09 08:45:46;;;;;;;16.83;6.57;;;;;;;;;;5074068;28;20062;-87
2023/10/09 08:48:15;;;;;;;15.98;7.00;;;;;;;;;;5077417;28;20044;-87
2023/10/09 08:50:49;;;;;;;19.27;7.40;;;;;;;;;;5096214;28;20059;-91
2023/10/09 08:53:18;;;;;;;19.08;7.13;;;;;;;;;;5089407;28;20024;-88
2023/10/09 08:55:51;;;;;;;20.92;7.32;;;;;;;;;;5109520;28;20150;-88
2023/10/09 08:58:20;;;;;;;16.83;6.22;;;;;;;;;;5088181;28;20629;-90
2023/10/09 09:00:50;;;;;;;15.35;7.70;;;;;;;;;;5094652;28;20055;-88
2023/10/09 09:03:17;;;;;;;15.25;6.68;;;;;;;;;;5097540;28;20039;-92
2023/10/09 09:06:00;;;;;;;19.08;7.47;;;;;;;;;;5100118;28;20040;-89
2023/10/09 09:08:36;;;;;;;20.70;7.55;;;;;;;;;;5077745;28;20314;-92
2023/10/09 09:11:12;;;;;;;9.02;5.60;;;;;;;;;;5060665;28;20090;-93
2023/10/09 09:13:42;;;;;;;13.70;7.30;;;;;;;;;;5077605;28;20488;-91
2023/10/09 09:16:15;;;;;;;15.13;6.80;;;;;;;;;;5077262;28;20082;-89
2023/10/09 09:19:04;;;;;;;18.30;6.63;;;;;;;;;;5091813;28;20539;-93
2023/10/09 09:21:38;;;;;;;19.80;6.70;;;;;;;;;;5093910;27;20055;-94
2023/10/09 09:24:15;;;;;;;;;;;;;;;;;;5108830;27;20047;-90
2023/10/09 09:26:47;;;;;;;19.25;6.32;;;;;;;;;;5127882;27;19927;-89
2023/10/09 09:29:19;;;;;;;12.32;6.00;;;;;;;;;;5124817;27;20047;-88
2023/10/09 09:31:53;;;;;;;12.25;6.55;;;;;;;;;;5084397;27;20126;-87
2023/10/09 09:34:25;;;;;;;13.57;6.47;;;;;;;;;;5102249;27;20054;-91
2023/10/09 09:36:56;;;;;;;17.30;6.82;;;16.50;52.40;;;;;;5125580;27;20051;-89
2023/10/09 09:39:34;;;;;;;8.25;4.85;;;;;;;;;;5110281;27;20175;-91
2023/10/09 09:42:07;;;;;;;17.20;5.82;;;;;;;;;;5110290;27;20041;-91
2023/10/09 09:44:42;;;;;;;13.15;5.72;;;;;;;;;;5112225;27;20051;-87
2023/10/09 09:47:12;;;;;;;10.43;5.00;;;;;;;;;;5114750;27;20678;-88
2023/10/09 09:49:40;;;;;;;10.63;5.30;;;;;;;;;;5130242;27;20066;-86
2023/10/09 09:52:14;;;;;;;14.77;4.80;;;;;;;;;;5118436;27;20035;-91
2023/10/09 09:54:44;;;;;;;9.85;4.88;;;;;;;;;;5102253;27;20405;-89
2023/10/09 09:57:15;;;;;;;12.77;5.15;;;;;;;;;;5112969;27;20386;-87
2023/10/09 09:59:49;;;;;;;10.05;5.93;;;;;;;;;;5089810;27;20168;-89
2023/10/09 10:02:20;;;;;;;15.50;5.53;;;;;;;;;;5109595;27;20491;-87
2023/10/09 10:04:56;;;;;;;14.18;6.10;;;;;;;;;;5130196;27;20054;-87
2023/10/09 10:07:24;;;;;;;19.55;5.45;;;16.80;56.50;;;;;;5134352;27;20040;-88
2023/10/09 10:09:54;;;;;;;14.85;5.75;;;;;;;;;;5127181;27;20103;-87
2023/10/09 10:12:47;;;;;;;11.20;5.20;;;16.90;59.30;;;;;;5110139;27;20039;-88
2023/10/09 10:15:16;;;;;;;15.27;5.13;;;;;;;;;;5110855;27;20051;-87
2023/10/09 10:17:58;;;;;;;20.55;6.22;;;;;;;;;;5102994;28;20055;-87
2023/10/09 10:20:25;;;;;;;20.25;5.60;;;;;;;;;;5110293;27;20066;-88
2023/10/09 10:23:17;;;;;;;14.25;5.60;;;16.80;57.70;;;;;;5094064;27;20460;-88
2023/10/09 10:25:48;;;;;;;10.05;5.32;;;;;;;;;;5106599;27;20616;-88
2023/10/09 10:28:44;;;;;;;15.48;6.10;;;;;;;;;;5110356;27;20119;-88
2023/10/09 10:31:13;;;;;;;12.45;4.97;;;;;;;;;;5094534;27;20047;-87
2023/10/09 10:33:54;;;;;;;10.57;5.25;;;;;;;;;;5110785;27;20130;-88
2023/10/09 10:36:24;;;;;;;15.35;5.78;;;;;;;;;;5093328;27;20036;-89
2023/10/09 10:39:20;;;;;;;14.35;5.78;;;;;;;;;;5113139;27;20600;-91
2023/10/09 10:41:54;;;;;;;19.23;6.70;;;16.90;63.50;;;;;;5087450;28;20126;-88
2023/10/09 10:44:38;;;;;;;16.77;5.93;;;;;;;;;;5099790;27;20043;-88
2023/10/09 10:47:05;;;;;;;21.70;6.45;;;;;;;;;;5110997;27;20081;-87
2023/10/09 10:49:38;;;;;;;16.58;5.30;;;;;;;;;;5100030;27;20099;-88
2023/10/09 10:52:18;;;;;;;13.07;5.10;;;;;;;;;;5116008;27;20138;-88
2023/10/09 10:54:45;;;;;;;13.75;5.63;;;;;;;;;;5119483;27;20123;-87
2023/10/09 10:57:28;;;;;;;16.52;6.10;;;16.90;62.80;;;;;;5119561;27;20521;-88
2023/10/09 11:01:03;;;;;;;25.67;6.95;;;;;;;;;;5120569;27;20418;-87
2023/10/09 11:03:13;;;;;;;22.58;6.40;;;;;;;;;;5115684;27;20043;-87
2023/10/09 11:05:43;;;;;;;18.05;5.60;;;;;;;;;;5099414;27;20039;-88
2023/10/09 11:08:13;;;;;;;14.75;6.05;;;;;;;;;;5078833;28;20048;-88
2023/10/09 11:10:49;;;;;;;23.33;5.97;;;;;;;;;;5095621;28;20126;-88
2023/10/09 11:13:53;;;;;;;13.15;5.68;;;;;;;;;;5095647;28;20101;-87
2023/10/09 11:16:14;;;;;;;16.40;5.50;;;;;;;;;;5094349;28;20063;-88
2023/10/09 11:18:46;;;;;;;15.13;7.15;;;;;;;;;;5113738;28;20079;-88
2023/10/09 11:26:28;;;;;;;17.02;4.57;;;;;;;;;;5115579;28;20096;-87
2023/10/09 11:29:23;;;;;;;11.05;4.18;;;;;;;;;;5098706;27;20054;-89
2023/10/09 11:32:05;;;;;;;7.35;3.63;;;;;;;;;;5119485;27;20043;-87
2023/10/09 11:34:36;;;;;;;12.38;4.88;;;;;;;;;;5120916;27;20051;-88
2023/10/09 11:37:04;;;;;;;9.38;4.10;;;;;;;;;;5119835;27;20036;-87
2023/10/09 11:39:35;;;;;;;9.98;4.32;;;16.80;59.40;;;;;;5102635;27;20176;-87
2023/10/09 11:42:06;;;;;;;11.52;4.03;;;;;;;;;;5119301;27;20131;-88
2023/10/09 11:44:39;;;;;;;9.50;3.58;;;;;;;;;;5119081;27;20043;-88
2023/10/09 11:50:18;;;;;;;10.23;3.55;;;17.00;49.80;;;;;;5134847;27;20412;-87
2023/10/09 11:53:08;;;;;;;6.40;2.75;;;17.00;62.70;;;;;;5119023;27;20100;-88
2023/10/09 11:55:35;;;;;;;12.40;3.72;;;;;;;;;;5081722;28;20047;-88
2023/10/09 11:58:02;;;;;;;13.52;4.05;;;;;;;;;;5098341;28;20047;-88
2023/10/09 12:00:29;;;;;;;9.85;3.40;;;;;;;;;;5082041;28;20157;-88
2023/10/09 12:02:55;;;;;;;14.35;3.40;;;;;;;;;;5125426;27;20042;-88
2023/10/09 12:05:22;;;;;;;5.40;3.35;;;;;;;;;;5139555;27;20074;-88
2023/10/09 12:07:54;;;;;;;6.78;2.67;;;;;;;;;;5122082;27;20443;-88
2023/10/09 12:10:25;;;;;;;8.88;3.42;;;;;;;;;;5139418;27;20511;-88
2023/10/09 12:12:52;;;;;;;16.00;4.22;;;;;;;;;;5157757;27;20069;-88
2023/10/09 12:15:19;;;;;;;10.55;3.83;;;;;;;;;;5122055;27;20067;-88
2023/10/09 12:17:47;;;;;;;13.00;3.83;;;;;;;;;;5119205;27;20031;-88
2023/10/09 12:20:29;;;;;;;10.93;3.58;;;;;;;;;;5102106;27;20045;-88
2023/10/09 12:22:59;;;;;;;8.25;3.42;;;17.00;54.70;;;;;;5118295;27;20066;-87
2023/10/09 12:25:26;;;;;;;6.15;3.58;;;;;;;;;;5118110;27;20082;-88
2023/10/09 12:27:57;;;;;;;5.70;3.38;;;;;;;;;;5118123;27;20039;-88
2023/10/09 12:30:26;;;;;;;8.57;3.30;;;;;;;;;;5124171;27;20035;-88
2023/10/09 12:32:57;;;;;;;8.68;3.22;;;17.00;55.90;;;;;;5138982;27;20041;-88
2023/10/09 12:35:24;;;;;;;6.85;2.45;;;;;;;;;;5121936;27;20082;-88
2023/10/09 12:37:51;;;;;;;8.65;3.08;;;;;;;;;;5121548;27;20031;-88
2023/10/09 12:40:24;;;;;;;9.38;3.30;;;;;;;;;;5121782;27;20126;-88
2023/10/09 12:42:53;;;;;;;7.22;2.55;;;;;;;;;;5120966;27;20042;-89
2023/10/09 12:45:32;;;;;;;9.52;3.13;;;;;;;;;;5120919;27;20078;-88
2023/10/09 12:47:59;;;;;;;5.82;3.00;;;17.10;52.50;;;;;;5121225;27;20043;-88
2023/10/09 12:50:28;;;;;;;4.80;2.90;;;16.90;52.10;;;;;;5143704;27;20070;-94
2023/10/09 12:53:07;;;;;;;6.07;2.40;;;;;;;;;;5138356;27;20035;-89
2023/10/09 12:55:40;;;;;;;7.93;2.72;;;;;;;;;;5120831;27;20081;-88
2023/10/09 12:58:14;;;;;;;9.98;3.05;;;;;;;;;;5155811;27;20046;-88
2023/10/09 13:00:44;;;;;;;10.07;3.25;;;17.20;46.30;;;;;;5121475;27;20046;-88
2023/10/09 13:03:16;;;;;;;9.13;2.80;;;;;;;;;;5138217;27;20054;-88
2023/10/09 13:05:52;;;;;;;9.07;3.20;;;;;;;;;;5137843;27;20053;-88
2023/10/09 13:08:36;;;;;;;11.55;4.15;;;;;;;;;;5121348;27;20547;-89
2023/10/09 13:11:16;;;;;;;7.28;3.10;;;17.20;49.30;;;;;;5156659;27;20042;-88
2023/10/09 13:13:43;;;;;;;8.23;2.75;;;;;;;;;;5106742;27;20505;-87
2023/10/09 13:16:27;;;;;;;9.23;3.45;;;17.20;47.60;;;;;;5101607;27;20440;-88
2023/10/09 13:18:59;;;;;;;6.95;2.95;;;17.30;46.40;;;;;;5096802;28;20104;-88
2023/10/09 13:21:26;;;;;;;15.95;4.47;;;;;;;;;;5097047;28;20047;-88
2023/10/09 13:23:54;;;;;;;7.53;3.10;;;;;;;;;;5080004;28;20380;-87
2023/10/09 13:26:40;;;;;;;4.18;2.95;;;17.30;45.70;;;;;;5097148;28;20046;-88
2023/10/09 13:29:11;;;;;;;14.65;2.95;;;;;;;;;;5079848;28;20043;-87
2023/10/09 13:31:37;;;;;;;5.85;3.38;;;;;;;;;;5109312;27;20043;-88
2023/10/09 13:34:06;;;;;;;8.90;2.65;;;;;;;;;;5120682;27;20053;-88
2023/10/09 13:36:33;;;;;;;16.55;3.40;;;17.50;40.50;;;;;;5120736;27;20045;-88
2023/10/09 13:41:48;;;;;;;9.77;3.25;;;;;;;;;;5137871;27;20069;-88
2023/10/09 13:44:17;;;;;;;14.38;3.60;;;;;;;;;;5135497;27;20035;-88
2023/10/09 13:46:46;;;;;;;13.00;5.70;;;;;;;;;;5099495;27;20050;-88
2023/10/09 13:49:12;;;;;;;6.22;3.30;;;;;;;;;;5099597;27;20039;-88
2023/10/09 13:51:43;;;;;;;6.15;2.70;;;;;;;;;;5099742;27;20493;-88
2023/10/09 13:54:10;;;;;;;7.90;4.13;;;17.40;33.90;;;;;;5099396;27;20479;-89
2023/10/09 13:56:39;;;;;;;8.40;3.58;;;;;;;;;;5116125;27;20047;-88
2023/10/09 13:59:10;;;;;;;6.68;3.00;;;;;;;;;;5106415;27;20042;-90
2023/10/09 14:01:39;;;;;;;7.28;2.70;;;;;;;;;;5119403;27;20041;-88
2023/10/09 14:04:08;;;;;;;11.63;3.60;;;;;;;;;;5119662;27;20095;-89
2023/10/09 14:06:35;;;;;;;6.32;2.95;;;;;;;;;;5119110;27;20479;-88
2023/10/09 14:09:09;;;;;;;9.05;2.63;;;17.20;34.10;;;;;;5119616;27;20043;-88
2023/10/09 14:11:39;;;;;;;10.32;3.33;;;;;;;;;;5100507;27;20548;-88
2023/10/09 14:14:09;;;;;;;9.60;3.75;;;;;;;;;;5130525;27;20046;-88
2023/10/09 14:16:42;;;;;;;12.70;3.38;;;;;;;;;;5136156;27;20053;-88
2023/10/09 14:19:13;;;;;;;8.77;2.55;;;;;;;;;;5136000;27;20046;-89
2023/10/09 14:21:40;;;;;;;6.68;2.88;;;;;;;;;;5119134;27;20104;-89
2023/10/09 14:24:17;;;;;;;9.60;3.10;;;;;;;;;;5154767;27;20046;-89
2023/10/09 14:26:45;;;;;;;4.55;2.72;;;;;;;;;;5135264;27;20035;-89
2023/10/09 14:29:16;;;;;;;7.18;3.13;;;;;;;;;;5119240;27;20159;-88
2023/10/09 14:31:59;;;;;;;6.38;4.13;;;;;;;;;;5135996;27;20054;-89
2023/10/09 14:34:32;;;;;;;5.50;3.20;;;;;;;;;;5118605;27;20079;-88
2023/10/09 14:37:00;;;;;;;5.40;3.00;;;;;;;;;;5119814;27;20039;-89
2023/10/09 14:39:27;;;;;;;8.82;2.65;;;;;;;;;;5118858;27;20046;-88
2023/10/09 14:42:01;;;;;;;8.40;3.33;;;;;;;;;;5103210;27;20510;-89
2023/10/09 14:44:30;;;;;;;10.07;2.63;;;17.00;30.80;;;;;;5098433;27;20046;-88
2023/10/09 14:46:56;;;;;;;8.98;2.97;;;;;;;;;;5113443;27;20042;-93
2023/10/09 14:49:23;;;;;;;9.77;4.28;;;;;;;;;;5137608;27;20051;-89
2023/10/09 14:51:50;;;;;;;9.95;3.35;;;;;;;;;;5137756;27;20046;-89
2023/10/09 14:54:18;;;;;;;7.32;3.03;;;;;;;;;;5154638;27;20047;-91
2023/10/09 14:56:45;;;;;;;5.85;2.40;;;;;;;;;;5155928;27;20433;-89
2023/10/09 14:59:12;;;;;;;5.75;2.88;;;;;;;;;;5120464;27;20074;-95
2023/10/09 15:01:38;;;;;;;12.82;2.90;;;;;;;;;;5155433;27;20034;-94
2023/10/09 15:04:10;;;;;;;5.93;3.33;;;;;;;;;;5109602;27;20039;-93
2023/10/09 15:06:38;;;;;;;8.95;2.95;;;;;;;;;;5100380;27;20368;-90
2023/10/09 15:09:22;;;;;;;9.45;3.75;;;;;;;;;;5121500;27;20103;-90
2023/10/09 15:12:09;;;;;;;10.57;3.17;;;;;;;;;;5136565;27;20043;-92
2023/10/09 15:14:53;;;;;;;10.82;3.47;;;;;;;;;;5136862;27;20042;-92
2023/10/09 15:17:33;;;;;;;8.05;2.88;;;;;;;;;;5120684;27;20082;-89
2023/10/09 15:20:01;;;;;;;8.45;3.42;;;;;;;;;;5155238;27;20102;-91
2023/10/09 15:22:35;;;;;;;12.02;3.08;;;;;;;;;;5133734;28;20055;-90
2023/10/09 15:25:01;;;;;;;7.00;3.15;;;;;;;;;;5113246;28;20120;-91
2023/10/09 15:27:28;;;;;;;12.93;4.03;;;;;;;;;;5113763;28;20090;-90
2023/10/09 15:29:55;;;;;;;7.93;3.10;;;;;;;;;;5096119;28;20093;-95
2023/10/09 15:32:24;;;;;;;10.32;3.60;;;;;;;;;;5094424;28;20040;-89
2023/10/09 15:34:56;;;;;;;18.08;3.75;;;;;;;;;;5094709;28;20096;-87
2023/10/09 15:37:22;;;;;;;9.93;2.83;;;;;;;;;;5099389;28;20126;-88
2023/10/09 15:39:49;;;;;;;14.13;2.83;;;;;;;;;;5115132;28;20050;-88
2023/10/09 15:42:16;;;;;;;13.20;3.20;;;;;;;;;;5114774;28;20036;-88
2023/10/09 15:44:47;;;;;;;13.57;2.80;;;;;;;;;;5114344;28;20047;-88
2023/10/09 15:47:15;;;;;;;11.10;2.80;;;;;;;;;;5114558;28;20050;-87
2023/10/09 15:49:43;;;;;;;8.80;2.67;;;;;;;;;;5131925;28;20058;-88
2023/10/09 15:52:13;;;;;;;5.40;2.72;;;;;;;;;;5131132;28;20059;-88
2023/10/09 15:54:47;;;;;;;12.52;3.22;;;;;;;;;;5116651;28;20039;-89
2023/10/09 15:57:14;;;;;;;5.93;2.30;;;;;;;;;;5115035;28;20054;-88
2023/10/09 15:59:40;;;;;;;6.53;2.85;;;;;;;;;;5133705;28;20448;-89
2023/10/09 16:02:07;;;;;;;7.30;3.42;;;;;;;;;;5118739;28;20050;-89
2023/10/09 16:04:33;;;;;;;10.25;3.00;;;;;;;;;;5114408;28;20050;-89
2023/10/09 16:07:05;;;;;;;8.15;2.80;;;;;;;;;;5115217;28;20055;-89
2023/10/09 16:09:35;;;;;;;8.40;2.45;;;;;;;;;;5094666;28;20043;-89
2023/10/09 16:12:01;;;;;;;7.07;2.70;;;;;;;;;;5111103;28;20079;-88
2023/10/09 16:14:27;;;;;;;9.02;3.30;;;;;;;;;;5095012;28;20112;-89
2023/10/09 16:16:55;;;;;;;11.93;3.08;;;;;;;;;;5096655;28;20044;-89
2023/10/09 16:19:22;;;;;;;8.13;2.75;;;;;;;;;;5114522;28;20071;-89
2023/10/09 16:21:52;;;;;;;5.25;2.08;;;;;;;;;;5116760;27;20108;-88
2023/10/09 16:24:19;;;;;;;9.10;2.63;;;;;;;;;;5117796;27;20141;-88
2023/10/09 16:26:51;;;;;;;10.07;3.35;;;;;;;;;;5134891;27;20039;-89
2023/10/09 16:29:17;;;;;;;9.77;3.80;;;;;;;;;;5134666;27;20086;-89
2023/10/09 16:31:43;;;;;;;6.30;2.72;;;;;;;;;;5117882;27;20050;-90
2023/10/09 16:34:13;;;;;;;7.05;3.50;;;;;;;;;;5135196;27;20043;-87
2023/10/09 16:36:39;;;;;;;6.68;3.03;;;;;;;;;;5136561;27;20469;-87
2023/10/09 16:39:18;;;;;;;8.18;3.00;;;;;;;;;;5106198;28;20051;-88
2023/10/09 16:41:45;;;;;;;7.78;2.42;;;16.60;31.70;;;;;;5095300;28;20050;-88
2023/10/09 16:44:16;;;;;;;18.27;3.15;;;;;;;;;;5095268;28;20079;-89
2023/10/09 16:46:44;;;;;;;8.10;2.63;;;;;;;;;;5095074;28;20404;-88
2023/10/09 16:49:13;;;;;;;9.20;3.33;;;16.60;29.70;;;;;;5077114;28;20086;-88
2023/10/09 16:51:42;;;;;;;9.80;3.63;;;;;;;;;;5060898;28;20086;-88
2023/10/09 16:54:14;;;;;;;7.63;2.25;;;;;;;;;;5076958;28;20446;-87
2023/10/09 16:56:42;;;;;;;6.28;2.40;;;;;;;;;;5122568;27;20043;-88
2023/10/09 16:59:15;;;;;;;7.65;2.47;;;16.20;31.20;;;;;;5098119;28;20183;-89
2023/10/09 17:01:41;;;;;;;10.50;2.55;;;;;;;;;;5115540;27;20067;-88
2023/10/09 17:04:11;;;;;;;6.88;2.13;;;;;;;;;;5096671;28;20054;-87
2023/10/09 17:06:38;;;;;;;3.35;2.03;;;;;;;;;;5113925;28;20130;-88
2023/10/09 17:09:08;;;;;;;5.78;1.55;;;;;;;;;;5093233;28;20082;-88
2023/10/09 17:11:36;;;;;;;4.78;2.00;;;;;;;;;;5097514;27;20058;-87
2023/10/09 17:14:05;;;;;;;4.47;1.90;;;;;;;;;;5134402;27;20429;-87
2023/10/09 17:16:31;;;;;;;3.20;1.77;;;;;;;;;;5135531;27;20426;-89